Skip Navigation Links
NOAA logo - Click to go to the NOAA homepage
NOAA's National Weather Service
Alaska Aviation Weather Unit
  NWS logo - Click to go to the NWS homepage
Left Navbar Graphic     02 AKDT = 10 GMT

   
NOAA is celebrating 200 years of science, service, and stewardship. Visit the NOAA 200th celebration Web site to learn more.
USA.gov is the U.S. Government's official Web portal to all Federal, state and local government Web resources and services.
Facebook
NWS on Facebook

AAWU Home :: Display TAF Add Bookmark
TAF PATA 270520Z 2706/2806 04004KT P6SM SKC
     FM271800 09009KT P6SM FEW100 SCT200
     FM280200 08008KT P6SM FEW050 SCT100 BKN200=
METAR PATA 270452Z AUTO 04006KT 10SM CLR M10/M19 A2987 RMK AO2 SLP123
     T11001189 TSNO PNO $=

METAR PATA 270552Z AUTO 00000KT 10SM CLR M15/M21 A2987 RMK AO2 SLP123
     T11501211 11050 21150 55002 TSNO PNO $=

METAR PATA 270652Z AUTO 04004KT 10SM CLR M18/M22 A2986 RMK AO2 SLP120
     T11781222 TSNO PNO $=

METAR PATA 270752Z AUTO 35005KT 10SM CLR M21/M24 A2986 RMK AO2 SLP119
     T12111239 TSNO PNO $=

PATA 270852Z AUTO 01004KT 10SM CLR M24/M27 A2985 RMK AO2 SLP118
     T12441272 410501311 TSNO PNO $=

METAR PATA 270952Z AUTO 33003KT 10SM CLR M24/M27 A2985 RMK AO2 SLP116
     T12441267 TSNO PNO $=


NOAA's National Weather Service
Alaska Aviation Weather Unit
6930 Sand Lake Road
Anchorage, AK 99502-1845
Disclaimer
Credits
Glossary
Privacy Policy
About Us
Career Opportunities
Contact AAWU Internet Services Site last modified: April, 17th 2012